Terminal Aerodrome Forecast
Issued by NWS

Home | Current Version | Previous Version | Graphics & Text | Print | Product List | Glossary Off
Versions: 1 2 3 4 5 6 7 8 9 10 11 12 13 14 15 16 17 18

780
FTUS43 KMPX 262320
TAFRNH
TAF
KRNH 262320Z 2700/2724 20010KT P6SM BKN050
     FM270030 24007KT P6SM SCT060
     FM270400 27003KT P6SM SKC
     FM271400 26005KT P6SM BKN200
     FM272000 25008KT P6SM BKN150=

USA.gov is the U.S. government's official web portal to all federal, state and local government web resources and services.